DW0487 Weather Reports


Display with metric or nautical units.
time (UTC)temp
F
wind
direction
speed
MPH
gust
MPH
rain 1hr
in
rain 24hr
in
rain mn
in
humidity
%
barometer
mb
20210121231604 44 192 3.0 14.0 0.00 0.00 0.00 59 1000.1
20210121230109 44 211 8.0 15.0 0.00 0.00 0.00 59 1000.0
20210121224601 44 233 11.0 17.0 0.00 0.00 0.00 59 1000.5
20210121223056 44 219 10.0 18.0 0.00 0.00 0.00 59 1000.6
20210121221536 44 188 9.0 18.0 0.00 0.00 0.00 60 1000.8
20210121220140 44 170 8.0 12.0 0.00 0.00 0.00 59 1000.8
20210121214537 44 178 6.0 16.0 0.00 0.00 0.00 60 1001.2
20210121213123 43 159 8.0 16.0 0.00 0.00 0.00 60 1001.4
20210121211532 43 169 7.0 15.0 0.00 0.00 0.00 61 1001.7
20210121210036 42 162 4.0 8.0 0.00 0.00 0.00 64 1002.2
20210121204523 41 190 4.0 8.0 0.00 0.00 0.00 65 1002.7
20210121203031 42 184 4.0 12.0 0.00 0.00 0.00 64 1002.8
20210121201527 41 160 3.0 7.0 0.00 0.00 0.00 66 1002.7
20210121200029 41 167 4.0 7.0 0.00 0.00 0.00 66 1003.0
20210121194547 41 160 2.0 7.0 0.00 0.00 0.00 66 1003.2
20210121193025 42 181 3.0 9.0 0.00 0.00 0.00 64 1003.5
20210121191519 42 179 3.0 10.0 0.00 0.00 0.00 64 1003.4
20210121190021 42 196 0.0 2.0 0.00 0.00 0.00 63 1003.8
20210121184536 42 175 0.0 5.0 0.00 0.00 0.00 62 1004.0
20210121183034 43 188 2.0 9.0 0.00 0.00 0.00 61 1004.2
20210121181522 43 181 4.0 11.0 0.00 0.00 0.00 59 1004.2
20210121180019 44 229 5.0 12.0 0.00 0.00 0.00 57 1003.9
20210121174526 44 213 7.0 15.0 0.00 0.00 0.00 57 1003.8
20210121173038 44 179 6.0 15.0 0.00 0.00 0.00 57 1004.2
20210121171531 44 250 7.0 15.0 0.00 0.00 0.00 56 1004.3
20210121170026 44 224 9.0 20.0 0.00 0.00 0.00 57 1004.1
20210121164512 45 238 12.0 23.0 0.00 0.00 0.00 55 1004.1
20210121163104 44 245 14.0 25.0 0.00 0.00 0.00 56 1004.2
20210121161520 45 185 8.0 25.0 0.00 0.00 0.00 55 1004.3
20210121160151 44 211 10.0 19.0 0.00 0.00 0.00 55 1004.3
20210121154626 45 229 10.0 20.0 0.00 0.00 0.00 56 1004.2
20210121153121 44 173 11.0 20.0 0.00 0.00 0.00 56 1004.3
20210121151726 45 254 10.0 20.0 0.00 0.00 0.00 55 1004.4
20210121150221 45 211 10.0 19.0 0.00 0.00 0.00 55 1004.5
20210121144735 45 200 8.0 18.0 0.00 0.00 0.00 55 1004.5
20210121143118 46 217 10.0 19.0 0.00 0.00 0.00 53 1005.0
20210121141614 47 196 11.0 25.0 0.00 0.00 0.00 52 1004.8
20210121140057 47 195 14.0 22.0 0.00 0.00 0.00 51 1004.9
20210121134711 47 202 13.0 24.0 0.00 0.00 0.00 51 1005.0
20210121133119 47 227 14.0 31.0 0.00 0.00 0.00 53 1005.0
20210121131705 47 215 12.0 28.0 0.00 0.00 0.00 51 1005.1
20210121130126 47 202 14.0 28.0 0.00 0.00 0.00 52 1005.3
20210121124726 47 239 16.0 27.0 0.00 0.00 0.00 51 1005.4
20210121123043 47 161 11.0 22.0 0.00 0.00 0.00 52 1005.8
20210121121722 47 199 10.0 19.0 0.00 0.00 0.00 51 1005.6
20210121120143 46 204 6.0 15.0 0.00 0.00 0.00 53 1006.0
20210121114552 46 232 15.0 25.0 0.00 0.00 0.00 52 1006.1
20210121113211 45 263 7.0 18.0 0.00 0.00 0.00 54 1006.3
20210121111534 44 228 6.0 17.0 0.00 0.00 0.00 56 1006.5
20210121110149 44 198 9.0 28.0 0.00 0.00 0.00 56 1006.4
20210121104535 45 181 12.0 31.0 0.00 0.00 0.00 54 1006.5
20210121103136 45 229 9.0 13.0 0.00 0.00 0.00 54 1006.7
20210121101534 44 250 8.0 14.0 0.00 0.00 0.00 55 1006.8
20210121100035 44 211 8.0 16.0 0.00 0.00 0.00 56 1007.2
20210121094558 43 86 0.0 9.0 0.00 0.01 0.00 57 1007.3
20210121093102 43 252 4.0 18.0 0.00 0.01 0.00 57 1007.0
20210121090053 43 135 4.0 11.0 0.00 0.01 0.00 56 1007.2
20210121084535 43 212 8.0 19.0 0.00 0.01 0.00 57 1007.2
20210121083028 42 187 10.0 26.0 0.00 0.01 0.00 58 1006.9
20210121080147 42 197 10.0 28.0 0.00 0.01 0.00 58 1007.1
20210121074624 42 222 8.0 21.0 0.00 0.01 0.00 59 1007.1
20210121073128 42 214 14.0 33.0 0.00 0.01 0.00 58 1007.0
20210121071645 42 204 12.0 23.0 0.00 0.01 0.00 58 1007.1
20210121070116 41 197 8.0 22.0 0.00 0.01 0.00 59 1007.3
20210121064553 41 163 9.0 24.0 0.00 0.01 0.00 60 1007.1
20210121063143 40 163 10.0 19.0 0.00 0.01 0.00 63 1007.0
20210121061647 39 188 10.0 22.0 0.00 0.01 0.00 64 1007.1
20210121060151 39 164 11.0 20.0 0.00 0.01 0.00 64 1007.1
20210121054559 40 169 11.0 27.0 0.00 0.01 0.00 63 1007.2
20210121053119 40 169 10.0 28.0 0.00 0.01 0.00 63 1007.1
20210121051602 40 156 12.0 26.0 0.00 0.01 0.00 62 1007.1
20210121050100 40 180 14.0 26.0 0.00 0.01 0.00 62 1007.1
20210121044602 40 188 14.0 31.0 0.00 0.01 0.00 61 1007.0
20210121043110 41 168 16.0 27.0 0.00 0.01 0.00 61 1006.7
20210121041605 40 161 12.0 21.0 0.00 0.01 0.00 62 1006.9
20210121040116 40 192 9.0 19.0 0.00 0.01 0.00 62 1007.3
20210121034606 40 165 15.0 24.0 0.00 0.01 0.00 63 1007.3
20210121033104 40 150 12.0 31.0 0.00 0.01 0.00 61 1006.9
20210121031555 40 171 17.0 26.0 0.00 0.01 0.00 61 1006.8
20210121030158 40 198 14.0 24.0 0.00 0.01 0.00 61 1006.8
20210121024604 40 155 17.0 26.0 0.00 0.01 0.00 61 1007.2
20210121023101 40 188 6.0 22.0 0.00 0.01 0.00 60 1007.6
20210121021633 40 200 11.0 19.0 0.00 0.01 0.00 61 1007.6
20210121020056 40 220 11.0 31.0 0.00 0.01 0.00 60 1007.7
20210121014530 40 184 13.0 22.0 0.00 0.01 0.00 61 1008.0
20210121013053 40 158 13.0 36.0 0.00 0.01 0.00 59 1008.1
20210121011608 40 201 13.0 33.0 0.00 0.01 0.00 59 1008.3
20210121010032 40 140 14.0 31.0 0.00 0.01 0.00 59 1008.4
20210121004528 40 184 13.0 25.0 0.00 0.01 0.00 58 1008.5
20210121003033 40 200 16.0 31.0 0.00 0.01 0.00 58 1008.7
20210121001548 40 193 14.0 31.0 0.00 0.01 0.00 59 1008.8
20210121000025 39 205 13.0 30.0 0.00 0.01 0.00 60 1008.8
20210120234523 39 188 14.0 28.0 0.00 0.01 0.00 59 1009.1
20210120233027 39 198 18.0 30.0 0.00 0.01 0.00 60 1009.3